This is the latest recevied weather packets stored in our database for station/object W0BJ. If no packets are shown the sender has not sent any weather packets the latest 1 day(s).
| Time | Temp. | Humidity | Pressure | Rain* | Wind** | Luminosity | Snow |
|---|---|---|---|---|---|---|---|
| 1777992143 | 12.78° C | 65% | 1012.6 hPa | 0.25 mm | 1.34 m/s, 9° | - | - |
| 1777991899 | 13.33° C | 68% | 1012.4 hPa | 0.25 mm | 3.58 m/s, 353° | - | - |
| 1777991545 | 12.22° C | 69% | 1012.1 hPa | 0.25 mm | 0.89 m/s, 31° | - | - |
| 1777990998 | 11.67° C | 71% | 1012.4 hPa | 0.25 mm | 2.68 m/s, 7° | - | - |
| 1777990944 | 11.67° C | 71% | 1012.6 hPa | 0.25 mm | 2.68 m/s, 14° | - | - |
| 1777990344 | 11.67° C | 72% | 1012.2 hPa | 0.25 mm | 5.36 m/s, 17° | - | - |
| 1777990098 | 11.67° C | 74% | 1012.2 hPa | 0.25 mm | 1.34 m/s, 7° | - | - |
| 1777989743 | 11.67° C | 76% | 1011.9 hPa | 0.25 mm | 4.02 m/s, 17° | - | - |
| 1777989199 | 11.67° C | 75% | 1012.6 hPa | 0 mm | 2.24 m/s, 26° | - | - |
| 1777989145 | 11.67° C | 75% | 1012.6 hPa | 0 mm | 3.13 m/s, 13° | - | - |
| 1777988543 | 11.11° C | 79% | 1012.3 hPa | 0.25 mm | 0.89 m/s, 16° | - | - |
| 1777988297 | 11.11° C | 79% | 1012 hPa | 0.51 mm | 0.89 m/s, 6° | - | - |
| 1777987945 | 11.11° C | 83% | 1012 hPa | 0.76 mm | 0 m/s | - | - |
| 1777987398 | 11.11° C | 81% | 1012.3 hPa | 1.02 mm | 0 m/s | - | - |
| 1777987344 | 11.11° C | 82% | 1012.3 hPa | 1.02 mm | 0.89 m/s, 36° | - | - |
| 1777986744 | 10.56° C | 83% | 1012.2 hPa | 1.27 mm | 0 m/s | - | - |
| 1777986498 | 10.56° C | 83% | 1012.1 hPa | 1.52 mm | 0 m/s | - | - |
| 1777986143 | 10.56° C | 86% | 1011.6 hPa | 2.03 mm | 0 m/s | - | - |
| 1777985599 | 10.56° C | 87% | 1011.1 hPa | 2.54 mm | 1.34 m/s, 84° | - | - |
| 1777985545 | 10.56° C | 87% | 1011.3 hPa | 2.54 mm | 0.45 m/s, 76° | - | - |
| 1777984944 | 10.56° C | 86% | 1012.2 hPa | 3.05 mm | 0 m/s | - | - |
| 1777984698 | 10.56° C | 87% | 1012.4 hPa | 3.56 mm | 0 m/s | - | - |
| 1777984344 | 10.56° C | 87% | 1012.6 hPa | 3.81 mm | 0 m/s | - | - |
| 1777983798 | 10.56° C | 85% | 1012.7 hPa | 3.56 mm | 0 m/s | - | - |
| 1777983743 | 10.56° C | 85% | 1012.7 hPa | 3.56 mm | 0 m/s | - | - |
* Rain latest hour (hover to see other rain measurements)
** Current wind speed in m/s (hover to see current wind gust speed)